This is the latest recevied weather packets stored in our database for station/object DC1NF-7. If no packets are shown the sender has not sent any weather packets the latest 1 day(s).
| Time | Temp. | Humidity | Pressure | Rain* | Wind** | Luminosity | Snow |
|---|---|---|---|---|---|---|---|
| 1778082331 | 16.67° C | 65% | 1005.8 hPa | 0 mm | - | 185 W/m² | - |
| 1778076352 | 18.89° C | 58% | 1005.6 hPa | 0 mm | - | 333 W/m² | - |
| 1778067361 | 18.89° C | 60% | 1006.2 hPa | 0 mm | - | 370 W/m² | - |
| 1778065546 | 18.89° C | 61% | 1006.5 hPa | 0 mm | - | 529 W/m² | - |
| 1778064946 | 18.33° C | 60% | 1006.5 hPa | 0 mm | - | 730 W/m² | - |
| 1778063736 | 18.33° C | 61% | 1006.5 hPa | 0 mm | - | 420 W/m² | - |
| 1778061923 | 17.78° C | 65% | 1006.8 hPa | 0 mm | - | 428 W/m² | - |
| 1778060171 | 17.22° C | 67% | 1006.8 hPa | 0 mm | - | 601 W/m² | - |
| 1778059568 | 16.67° C | 69% | 1006.8 hPa | 0 mm | - | 752 W/m² | - |
| 1778058968 | 16.67° C | 72% | 1006.7 hPa | 0 mm | - | 519 W/m² | - |
| 1778057152 | 16.67° C | 73% | 1006.8 hPa | 0 mm | - | 643 W/m² | - |
| 1778052325 | 13.89° C | 85% | 1006.7 hPa | 0 mm | - | 384 W/m² | - |
| 1778051723 | 14.44° C | 83% | 1006.7 hPa | 0 mm | - | 243 W/m² | - |
| 1778050577 | 13.89° C | 85% | 1006.6 hPa | 0 mm | - | 294 W/m² | - |
| 1778049971 | 13.89° C | 88% | 1006.7 hPa | 0 mm | - | 184 W/m² | - |
| 1778049367 | 13.33° C | 89% | 1006.6 hPa | 0 mm | - | 172 W/m² | - |
| 1778047554 | 13.33° C | 88% | 1006.6 hPa | 0 mm | - | 148 W/m² | - |
| 1778046950 | 13.33° C | 90% | 1006.8 hPa | 0 mm | - | 143 W/m² | - |
| 1778046346 | 12.22° C | 91% | 1007 hPa | 0 mm | - | 103 W/m² | - |
| 1778045746 | 12.22° C | 92% | 1007 hPa | 0 mm | - | 122 W/m² | - |
| 1778045140 | 12.22° C | 92% | 1006.9 hPa | 0 mm | - | 100 W/m² | - |
| 1778044536 | 12.22° C | 91% | 1007 hPa | 0 mm | - | 112 W/m² | - |
| 1778043932 | 12.22° C | 92% | 1007.2 hPa | 0 mm | - | 88 W/m² | - |
| 1778043328 | 12.22° C | 93% | 1007.2 hPa | 0 mm | - | 77 W/m² | - |
| 1778042724 | 11.11° C | 96% | 1007 hPa | 0 mm | - | 51 W/m² | - |
* Rain latest hour (hover to see other rain measurements)
** Current wind speed in m/s (hover to see current wind gust speed)